createdAt,value
2018-07-08T00:02:23.676Z,90.90
2018-07-08T00:04:56.451Z,90.90
2018-07-08T00:07:24.356Z,90.90
2018-07-08T00:09:52.285Z,90.70
2018-07-08T00:12:20.235Z,91.00
2018-07-08T00:14:48.204Z,91.10
2018-07-08T00:17:16.089Z,91.00
2018-07-08T00:19:51.679Z,91.20
2018-07-08T00:22:19.643Z,91.30
2018-07-08T00:24:47.559Z,91.70
2018-07-08T00:27:15.512Z,91.30
2018-07-08T00:29:50.514Z,91.50
2018-07-08T00:32:18.404Z,91.50
2018-07-08T00:34:46.380Z,91.80
2018-07-08T00:37:14.275Z,91.90
2018-07-08T00:39:43.259Z,92.30
2018-07-08T00:42:11.171Z,92.40
2018-07-08T00:44:40.128Z,92.40
2018-07-08T00:47:07.998Z,92.20
2018-07-08T00:49:41.389Z,92.10
2018-07-08T00:52:09.275Z,92.00
2018-07-08T00:54:37.282Z,92.00
2018-07-08T00:57:08.495Z,91.80
2018-07-08T00:59:36.286Z,91.90
2018-07-08T01:02:04.067Z,92.60
2018-07-08T01:04:31.847Z,93.10
2018-07-08T01:06:59.677Z,93.60
2018-07-08T01:09:27.508Z,93.30
2018-07-08T01:11:55.258Z,93.90
2018-07-08T01:17:43.915Z,93.50
2018-07-08T01:20:11.900Z,93.90
2018-07-08T01:22:39.878Z,95.00
2018-07-08T01:25:11.403Z,94.00
2018-07-08T01:27:39.672Z,93.80
2018-07-08T01:30:08.022Z,94.10
2018-07-08T01:32:36.076Z,94.50
2018-07-08T01:35:04.051Z,94.50
2018-07-08T01:37:32.403Z,94.40
2018-07-08T01:40:00.336Z,94.40
2018-07-08T01:42:29.248Z,94.70
2018-07-08T01:44:57.234Z,94.40
2018-07-08T01:47:25.750Z,94.30
2018-07-08T01:49:53.689Z,94.20
2018-07-08T01:52:22.811Z,94.20
2018-07-08T01:54:50.752Z,94.10
2018-07-08T01:57:18.748Z,94.40
2018-07-08T01:59:47.537Z,94.20
2018-07-08T02:02:16.581Z,94.20
2018-07-08T02:04:44.577Z,93.80
2018-07-08T02:07:12.876Z,93.50
2018-07-08T02:09:40.766Z,93.10
2018-07-08T02:12:08.897Z,93.00
2018-07-08T02:14:37.026Z,92.70
2018-07-08T02:17:04.998Z,92.50
2018-07-08T02:19:32.916Z,92.40
2018-07-08T02:22:00.708Z,92.10
2018-07-08T02:24:28.539Z,92.10
2018-07-08T02:26:56.373Z,92.60
2018-07-08T02:29:24.214Z,92.70
2018-07-08T02:31:52.169Z,92.90
2018-07-08T02:34:20.323Z,93.00
2018-07-08T02:36:48.209Z,93.10
2018-07-08T02:39:16.146Z,93.50
2018-07-08T02:41:44.002Z,93.50
2018-07-08T02:44:11.831Z,93.50
2018-07-08T02:46:39.669Z,93.50
2018-07-08T02:49:07.548Z,94.10
2018-07-08T02:51:35.503Z,93.90
2018-07-08T02:54:03.444Z,94.50
2018-07-08T03:00:14.887Z,94.70
2018-07-08T03:02:44.940Z,95.30
2018-07-08T03:05:12.826Z,95.40
2018-07-08T03:07:41.811Z,95.20
2018-07-08T03:10:09.699Z,95.00
2018-07-08T03:12:37.735Z,94.70
2018-07-08T03:15:05.865Z,94.30
2018-07-08T03:17:33.880Z,94.40
2018-07-08T03:20:02.999Z,94.70
2018-07-08T03:22:30.944Z,94.20
2018-07-08T03:24:58.854Z,95.20
2018-07-08T03:27:27.832Z,95.20
2018-07-08T03:29:55.742Z,95.80
2018-07-08T03:32:24.655Z,96.20
2018-07-08T03:34:52.554Z,96.00
2018-07-08T03:37:20.445Z,95.70
2018-07-08T03:39:48.353Z,95.60
2018-07-08T03:42:19.460Z,95.80
2018-07-08T03:44:47.359Z,96.00
2018-07-08T03:47:17.305Z,96.90
2018-07-08T03:49:45.185Z,97.30
2018-07-08T03:52:13.154Z,96.60
2018-07-08T03:54:41.020Z,97.10
2018-07-08T03:57:09.092Z,96.20
2018-07-08T03:59:37.136Z,96.50
2018-07-08T04:02:04.941Z,96.40
2018-07-08T04:04:32.764Z,95.80
2018-07-08T04:07:00.532Z,95.50
2018-07-08T04:09:28.298Z,95.20
2018-07-08T04:11:56.104Z,95.40
2018-07-08T04:14:23.900Z,95.20
2018-07-08T04:16:51.624Z,94.90
2018-07-08T04:19:19.392Z,94.50
2018-07-08T04:21:47.221Z,94.50
2018-07-08T04:24:14.981Z,94.60
2018-07-08T04:26:42.770Z,94.50
2018-07-08T04:29:10.612Z,94.50
2018-07-08T04:35:13.629Z,94.60
2018-07-08T04:37:41.435Z,94.20
2018-07-08T04:40:09.239Z,93.70
2018-07-08T04:42:37.004Z,93.60
2018-07-08T04:45:04.755Z,93.90
2018-07-08T04:47:32.514Z,93.70
2018-07-08T04:50:00.289Z,93.90
2018-07-08T04:52:28.068Z,94.20
2018-07-08T04:54:56.286Z,94.00
2018-07-08T04:57:24.114Z,94.30
2018-07-08T04:59:51.917Z,94.30
2018-07-08T05:02:19.712Z,94.10
2018-07-08T05:04:53.173Z,93.90
2018-07-08T05:07:21.011Z,93.50
2018-07-08T05:09:48.774Z,93.30
2018-07-08T05:12:16.672Z,93.00
2018-07-08T05:14:44.459Z,93.20
2018-07-08T05:17:12.396Z,93.10
2018-07-08T05:19:40.414Z,93.10
2018-07-08T05:22:08.251Z,93.10
2018-07-08T05:24:36.017Z,92.60
2018-07-08T05:27:03.950Z,92.40
2018-07-08T05:29:31.728Z,91.70
2018-07-08T05:31:59.613Z,91.80
2018-07-08T05:34:48.192Z,91.30
2018-07-08T05:37:15.981Z,91.60
2018-07-08T05:39:43.801Z,91.20
2018-07-08T05:42:11.605Z,90.50
2018-07-08T05:44:39.431Z,89.80
2018-07-08T05:47:07.332Z,88.80
2018-07-08T05:49:35.257Z,88.20
2018-07-08T05:52:03.094Z,89.20
2018-07-08T05:54:30.963Z,89.80
2018-07-08T05:56:58.809Z,90.00
2018-07-08T06:02:14.712Z,90.00
2018-07-08T06:04:42.569Z,90.00
2018-07-08T06:07:10.398Z,88.50
2018-07-08T06:09:41.040Z,87.80
2018-07-08T06:12:09.012Z,87.40
2018-07-08T06:14:36.926Z,86.40
2018-07-08T06:17:45.889Z,83.40
2018-07-08T06:20:13.708Z,82.90
2018-07-08T06:22:41.505Z,81.70
2018-07-08T06:25:09.325Z,81.60
2018-07-08T06:27:37.168Z,82.50
2018-07-08T06:30:05.144Z,82.60
2018-07-08T06:32:32.956Z,83.70
2018-07-08T06:35:00.848Z,83.40
2018-07-08T06:37:28.660Z,82.50
2018-07-08T06:39:56.618Z,81.60
2018-07-08T06:42:24.460Z,80.80
2018-07-08T06:44:52.335Z,80.60
2018-07-08T06:47:20.143Z,78.30
2018-07-08T06:49:47.966Z,79.10
2018-07-08T06:52:15.968Z,77.40
2018-07-08T06:55:05.960Z,77.20
2018-07-08T06:57:33.714Z,77.50
2018-07-08T07:00:01.564Z,75.10
2018-07-08T07:02:29.400Z,75.30
2018-07-08T07:04:58.318Z,73.70
2018-07-08T07:07:26.013Z,74.50
2018-07-08T07:09:53.838Z,73.70
2018-07-08T07:12:21.631Z,74.30
2018-07-08T07:14:49.389Z,74.30
2018-07-08T07:17:17.185Z,73.10
2018-07-08T07:19:45.141Z,72.60
2018-07-08T07:22:12.935Z,73.90
2018-07-08T07:24:40.869Z,72.30
2018-07-08T07:27:08.892Z,71.80
2018-07-08T07:29:36.708Z,70.70
2018-07-08T07:34:43.067Z,71.90
2018-07-08T07:37:11.057Z,70.40
2018-07-08T07:39:38.916Z,70.70
2018-07-08T07:42:06.774Z,70.60
2018-07-08T07:44:34.684Z,69.00
2018-07-08T07:47:02.512Z,67.60
2018-07-08T07:49:30.358Z,68.20
2018-07-08T07:51:58.236Z,69.70
2018-07-08T07:54:26.271Z,66.90
2018-07-08T07:56:54.015Z,67.00
2018-07-08T07:59:21.845Z,66.70
2018-07-08T08:01:49.609Z,66.40
2018-07-08T08:04:17.541Z,66.20
2018-07-08T08:06:45.439Z,66.40
2018-07-08T08:09:13.811Z,66.20
2018-07-08T08:11:41.974Z,66.60
2018-07-08T08:14:09.798Z,64.70
2018-07-08T08:16:38.001Z,62.70
2018-07-08T08:19:05.922Z,64.70
2018-07-08T08:21:33.870Z,64.70
2018-07-08T08:24:01.712Z,63.70
2018-07-08T08:26:29.892Z,63.00
2018-07-08T08:28:57.718Z,62.70
2018-07-08T08:31:25.551Z,63.90
2018-07-08T08:35:06.464Z,63.10
2018-07-08T08:37:36.387Z,63.30
2018-07-08T08:40:05.895Z,60.10
2018-07-08T08:42:33.741Z,61.20
2018-07-08T08:45:01.891Z,60.90
2018-07-08T08:47:30.236Z,58.60
2018-07-08T08:49:58.135Z,59.20
2018-07-08T08:52:26.035Z,59.10
2018-07-08T08:54:54.133Z,61.20
2018-07-08T08:57:21.889Z,60.10
2018-07-08T08:59:49.788Z,60.90
2018-07-08T09:02:17.616Z,59.20
2018-07-08T09:05:15.171Z,57.80
2018-07-08T09:07:43.045Z,59.10
2018-07-08T09:10:10.832Z,58.70
2018-07-08T09:12:38.605Z,58.00
2018-07-08T09:15:06.464Z,56.60
2018-07-08T09:17:34.239Z,58.00
2018-07-08T09:20:02.023Z,57.70
2018-07-08T09:22:29.788Z,57.20
2018-07-08T09:24:57.593Z,57.00
2018-07-08T09:27:25.350Z,57.10
2018-07-08T09:29:54.136Z,57.80
2018-07-08T09:35:00.813Z,58.20
2018-07-08T09:37:28.562Z,56.80
2018-07-08T09:39:56.390Z,56.70
2018-07-08T09:42:24.181Z,57.60
2018-07-08T09:44:59.754Z,55.70
2018-07-08T09:47:27.704Z,56.30
2018-07-08T09:49:55.528Z,57.90
2018-07-08T09:52:23.339Z,58.50
2018-07-08T09:54:51.170Z,56.60
2018-07-08T09:57:19.933Z,56.90
2018-07-08T09:59:47.693Z,58.00
2018-07-08T10:02:16.659Z,57.00
2018-07-08T10:04:44.665Z,56.70
2018-07-08T10:07:12.461Z,58.10
2018-07-08T10:09:40.247Z,56.80
2018-07-08T10:12:08.092Z,57.80
2018-07-08T10:14:36.894Z,55.90
2018-07-08T10:17:04.973Z,55.10
2018-07-08T10:19:33.387Z,54.80
2018-07-08T10:22:02.154Z,54.40
2018-07-08T10:27:13.570Z,55.00
2018-07-08T10:29:41.365Z,57.10
2018-07-08T10:32:09.160Z,55.70
2018-07-08T10:34:52.636Z,54.70
2018-07-08T10:37:21.222Z,54.40
2018-07-08T10:39:48.954Z,55.00
2018-07-08T10:42:16.731Z,53.10
2018-07-08T10:44:44.643Z,54.20
2018-07-08T10:47:12.529Z,52.30
2018-07-08T10:49:40.306Z,53.40
2018-07-08T10:52:08.099Z,54.00
2018-07-08T10:54:35.887Z,53.10
2018-07-08T10:57:03.683Z,53.00
2018-07-08T10:59:31.481Z,52.60
2018-07-08T11:01:59.278Z,51.50
2018-07-08T11:05:04.656Z,52.20
2018-07-08T11:07:33.233Z,52.30
2018-07-08T11:10:01.061Z,52.20
2018-07-08T11:12:28.828Z,53.30
2018-07-08T11:14:56.620Z,53.20
2018-07-08T11:17:24.428Z,51.50
2018-07-08T11:19:52.408Z,51.40
2018-07-08T11:22:20.218Z,52.00
2018-07-08T11:24:48.028Z,52.60
2018-07-08T11:27:15.812Z,52.50
2018-07-08T11:29:43.675Z,52.80
2018-07-08T11:32:11.668Z,52.30
2018-07-08T11:34:39.709Z,52.40
2018-07-08T11:37:07.688Z,51.80
2018-07-08T11:39:35.572Z,52.30
2018-07-08T11:42:04.818Z,51.00
2018-07-08T11:45:11.965Z,51.20
2018-07-08T11:47:48.229Z,51.80
2018-07-08T11:50:16.196Z,51.70
2018-07-08T11:52:44.185Z,50.90
2018-07-08T11:55:12.071Z,50.60
2018-07-08T11:57:42.881Z,51.90
2018-07-08T12:00:10.865Z,52.10
2018-07-08T12:02:39.913Z,52.50
2018-07-08T12:05:07.871Z,51.90
2018-07-08T12:07:35.968Z,50.70
2018-07-08T12:10:04.038Z,50.30
2018-07-08T12:12:32.207Z,50.30
2018-07-08T12:15:00.137Z,50.20
2018-07-08T12:17:28.230Z,49.40
2018-07-08T12:19:56.167Z,49.80
2018-07-08T12:22:24.377Z,49.60
2018-07-08T12:24:52.340Z,50.50
2018-07-08T12:27:20.421Z,50.70
2018-07-08T12:29:48.351Z,49.90
2018-07-08T12:32:16.389Z,49.40
2018-07-08T12:34:45.102Z,50.40
2018-07-08T12:37:13.954Z,51.10
2018-07-08T12:39:41.792Z,50.70
2018-07-08T12:42:09.542Z,50.30
2018-07-08T12:44:37.431Z,49.60
2018-07-08T12:47:05.102Z,49.10
2018-07-08T12:49:32.872Z,50.00
2018-07-08T12:52:01.691Z,50.00
2018-07-08T12:54:29.450Z,50.50
2018-07-08T12:56:57.227Z,50.30
2018-07-08T12:59:24.986Z,49.80
2018-07-08T13:01:52.798Z,49.40
2018-07-08T13:04:28.320Z,49.30
2018-07-08T13:06:56.239Z,49.60
2018-07-08T13:09:24.315Z,49.90
2018-07-08T13:11:52.326Z,49.30
2018-07-08T13:14:20.314Z,48.50
2018-07-08T13:16:48.259Z,50.20
2018-07-08T13:19:16.232Z,50.20
2018-07-08T13:21:44.127Z,50.40
2018-07-08T13:24:13.827Z,49.20
2018-07-08T13:26:41.773Z,49.00
2018-07-08T13:29:13.422Z,49.10
2018-07-08T13:31:41.339Z,48.70
2018-07-08T13:34:09.317Z,47.60
2018-07-08T13:36:37.252Z,48.70
2018-07-08T13:39:06.938Z,47.20
2018-07-08T13:41:34.969Z,47.00
2018-07-08T13:44:03.043Z,46.80
2018-07-08T13:46:30.951Z,47.60
2018-07-08T13:48:59.124Z,48.10
2018-07-08T13:51:27.403Z,47.60
2018-07-08T13:53:55.510Z,47.40
2018-07-08T13:56:23.452Z,47.30
2018-07-08T13:58:51.625Z,45.00
2018-07-08T14:01:19.562Z,46.20
2018-07-08T14:03:47.594Z,44.30
2018-07-08T14:27:44.634Z,46.50
2018-07-08T14:30:13.577Z,45.70
2018-07-08T14:32:41.477Z,45.10
2018-07-08T14:35:10.389Z,44.10
2018-07-08T14:37:38.292Z,44.20
2018-07-08T14:40:06.450Z,43.40
2018-07-08T14:42:34.339Z,44.50
2018-07-08T14:45:02.229Z,43.50
2018-07-08T14:47:30.065Z,42.60
2018-07-08T14:49:57.926Z,44.20
2018-07-08T14:52:25.701Z,43.80
2018-07-08T14:54:56.917Z,45.20
2018-07-08T14:57:24.734Z,46.80
2018-07-08T14:59:52.635Z,45.60
2018-07-08T15:02:20.555Z,46.10
2018-07-08T15:04:48.575Z,46.60
2018-07-08T15:07:16.389Z,47.10
2018-07-08T15:10:28.099Z,47.10
2018-07-08T15:12:55.974Z,47.20
2018-07-08T15:15:23.876Z,47.70
2018-07-08T15:17:51.952Z,47.30
2018-07-08T15:20:19.727Z,47.10
2018-07-08T15:22:47.549Z,47.50
2018-07-08T15:25:17.407Z,47.30
2018-07-08T15:27:45.316Z,47.10
2018-07-08T15:30:13.165Z,47.70
2018-07-08T15:32:41.019Z,48.50
2018-07-08T15:35:08.823Z,48.50
2018-07-08T15:37:36.974Z,46.90
2018-07-08T15:40:05.026Z,48.00
2018-07-08T15:42:33.025Z,48.40
2018-07-08T15:45:00.935Z,48.50
2018-07-08T15:47:28.791Z,48.10
2018-07-08T15:49:56.868Z,48.80
2018-07-08T15:52:25.703Z,49.20
2018-07-08T15:54:53.741Z,49.70
2018-07-08T15:57:21.568Z,50.70
2018-07-08T15:59:49.414Z,51.20
2018-07-08T16:02:17.233Z,51.20
2018-07-08T16:05:21.867Z,50.60
2018-07-08T16:11:24.358Z,50.60
2018-07-08T16:13:52.116Z,51.70
2018-07-08T16:16:19.911Z,52.00
2018-07-08T16:18:47.938Z,51.70
2018-07-08T16:21:15.625Z,52.10
2018-07-08T16:23:43.782Z,52.80
2018-07-08T16:26:11.582Z,53.50
2018-07-08T16:28:39.420Z,53.70
2018-07-08T16:31:07.244Z,54.00
2018-07-08T16:33:35.440Z,54.20
2018-07-08T16:36:04.366Z,53.10
2018-07-08T16:38:32.156Z,52.60
2018-07-08T16:40:59.958Z,52.90
2018-07-08T16:43:28.055Z,53.50
2018-07-08T16:45:55.849Z,53.50
2018-07-08T16:48:24.066Z,53.50
2018-07-08T16:50:51.828Z,53.10
2018-07-08T16:53:19.602Z,54.70
2018-07-08T16:55:47.483Z,54.70
2018-07-08T16:58:15.338Z,55.10
2018-07-08T17:00:45.108Z,53.90
2018-07-08T17:03:12.870Z,54.90
2018-07-08T17:05:40.719Z,54.90
2018-07-08T17:08:09.733Z,54.80
2018-07-08T17:13:02.978Z,55.90
2018-07-08T17:15:31.205Z,56.00
2018-07-08T17:17:59.009Z,55.90
2018-07-08T17:20:26.840Z,55.90
2018-07-08T17:22:54.926Z,55.50
2018-07-08T17:25:22.722Z,56.10
2018-07-08T17:27:50.559Z,57.10
2018-07-08T17:30:18.380Z,59.20
2018-07-08T17:32:46.497Z,60.30
2018-07-08T17:35:14.362Z,61.60
2018-07-08T17:37:42.286Z,62.30
2018-07-08T17:40:10.151Z,63.10
2018-07-08T17:42:38.993Z,64.10
2018-07-08T17:45:06.888Z,64.40
2018-07-08T17:47:34.643Z,64.90
2018-07-08T17:50:24.648Z,65.00
2018-07-08T17:52:52.891Z,65.30
2018-07-08T17:55:20.817Z,65.80
2018-07-08T17:57:48.797Z,66.10
2018-07-08T18:00:16.733Z,66.50
2018-07-08T18:02:46.895Z,66.80
2018-07-08T18:05:14.804Z,66.90
2018-07-08T18:07:42.899Z,67.20
2018-07-08T18:10:10.822Z,66.60
2018-07-08T18:12:38.888Z,65.90
2018-07-08T18:15:06.865Z,66.50
2018-07-08T18:17:34.878Z,67.90
2018-07-08T18:20:02.973Z,68.70
2018-07-08T18:22:31.233Z,69.10
2018-07-08T18:24:59.239Z,69.90
2018-07-08T18:27:27.284Z,70.10
2018-07-08T18:29:55.201Z,70.10
2018-07-08T18:32:23.282Z,70.10
2018-07-08T18:34:51.223Z,70.70
2018-07-08T18:37:19.417Z,71.20
2018-07-08T18:39:47.823Z,71.30
2018-07-08T18:42:15.712Z,72.10
2018-07-08T18:44:43.524Z,72.50
2018-07-08T18:47:11.408Z,72.40
2018-07-08T18:49:39.305Z,72.50
2018-07-08T18:52:07.050Z,72.40
2018-07-08T18:54:35.028Z,72.40
2018-07-08T18:57:02.881Z,72.40
2018-07-08T18:59:30.932Z,73.20
2018-07-08T19:01:58.794Z,73.00
2018-07-08T19:04:26.869Z,73.20
2018-07-08T19:06:54.878Z,73.70
2018-07-08T19:09:39.071Z,74.10
2018-07-08T19:12:06.998Z,74.60
2018-07-08T19:17:15.398Z,75.80
2018-07-08T19:19:43.258Z,76.30
2018-07-08T19:22:11.035Z,78.30
2018-07-08T19:24:39.815Z,77.50
2018-07-08T19:27:07.640Z,78.00
2018-07-08T19:29:35.606Z,78.60
2018-07-08T19:32:03.441Z,79.60
2018-07-08T19:34:31.657Z,79.60
2018-07-08T19:41:36.538Z,79.60
2018-07-08T19:44:04.445Z,80.30
2018-07-08T19:46:32.364Z,80.80
2018-07-08T19:49:00.372Z,81.30
2018-07-08T19:51:55.071Z,81.40
2018-07-08T19:54:23.891Z,81.60
2018-07-08T19:56:51.684Z,82.50
2018-07-08T19:59:19.500Z,83.20
2018-07-08T20:01:47.320Z,82.80
2018-07-08T20:04:15.162Z,83.70
2018-07-08T20:06:43.571Z,84.50
2018-07-08T20:09:12.144Z,84.80
2018-07-08T20:11:40.514Z,84.70
2018-07-08T20:14:45.203Z,84.90
2018-07-08T20:17:13.001Z,85.60
2018-07-08T20:19:40.840Z,85.20
2018-07-08T20:22:08.669Z,85.70
2018-07-08T20:24:36.392Z,85.50
2018-07-08T20:27:04.397Z,86.70
2018-07-08T20:29:32.556Z,87.50
2018-07-08T20:32:00.311Z,87.00
2018-07-08T20:34:28.119Z,88.30
2018-07-08T20:36:56.977Z,88.20
2018-07-08T20:39:24.776Z,88.60
2018-07-08T20:41:52.647Z,88.20
2018-07-08T20:44:20.413Z,88.80
2018-07-08T20:46:48.206Z,88.90
2018-07-08T20:49:15.996Z,90.20
2018-07-08T20:52:00.354Z,89.90
2018-07-08T20:54:28.365Z,90.20
2018-07-08T20:56:56.389Z,90.10
2018-07-08T20:59:24.264Z,90.10
2018-07-08T21:01:52.014Z,90.50
2018-07-08T21:04:20.538Z,91.20
2018-07-08T21:06:48.374Z,91.80
2018-07-08T21:09:16.165Z,91.10
2018-07-08T21:11:44.021Z,91.30
2018-07-08T21:14:11.856Z,91.30
2018-07-08T21:17:10.172Z,91.50
2018-07-08T21:19:38.027Z,92.10
2018-07-08T21:22:05.925Z,92.70
2018-07-08T21:24:33.743Z,92.50
2018-07-08T21:27:01.562Z,93.00
2018-07-08T21:29:29.394Z,93.20
2018-07-08T21:32:20.082Z,93.40
2018-07-08T21:34:48.125Z,93.90
2018-07-08T21:37:16.398Z,94.10
2018-07-08T21:42:23.533Z,94.50
2018-07-08T21:44:51.423Z,94.70
2018-07-08T21:47:19.830Z,94.80
2018-07-08T21:49:47.652Z,95.20
2018-07-08T21:52:15.722Z,95.30
2018-07-08T21:54:43.632Z,95.50
2018-07-08T21:57:11.488Z,95.50
2018-07-08T21:59:39.248Z,95.50
2018-07-08T22:02:15.669Z,95.50
2018-07-08T22:04:43.530Z,95.70
2018-07-08T22:07:16.994Z,95.70
2018-07-08T22:09:44.790Z,95.20
2018-07-08T22:12:12.536Z,95.80
2018-07-08T22:14:40.362Z,96.90
2018-07-08T22:17:09.129Z,96.70
2018-07-08T22:19:37.983Z,96.50
2018-07-08T22:22:05.873Z,96.40
2018-07-08T22:24:33.646Z,97.60
2018-07-08T22:27:01.525Z,97.80
2018-07-08T22:29:29.353Z,97.40
2018-07-08T22:31:57.150Z,98.60
2018-07-08T22:34:24.993Z,98.60
2018-07-08T22:36:53.197Z,97.80
2018-07-08T22:39:21.046Z,98.90
2018-07-08T22:41:48.842Z,99.70
2018-07-08T22:44:16.635Z,99.50
2018-07-08T22:46:44.435Z,99.40
2018-07-08T22:49:12.180Z,99.40
2018-07-08T22:51:39.974Z,99.30
2018-07-08T22:54:07.761Z,99.10
2018-07-08T22:56:36.587Z,99.50
2018-07-08T22:59:04.583Z,99.50
2018-07-08T23:01:43.615Z,99.60
2018-07-08T23:04:11.762Z,99.90
2018-07-08T23:06:39.571Z,99.80
2018-07-08T23:09:07.477Z,99.10
2018-07-08T23:11:35.309Z,99.70
2018-07-08T23:14:03.147Z,99.90
2018-07-08T23:19:34.923Z,99.30
2018-07-08T23:22:02.755Z,98.70
2018-07-08T23:24:30.543Z,99.70
2018-07-08T23:26:58.436Z,99.90
2018-07-08T23:29:26.201Z,99.90
2018-07-08T23:31:54.015Z,99.90
2018-07-08T23:34:21.830Z,99.90
2018-07-08T23:36:51.605Z,99.90
2018-07-08T23:39:19.403Z,99.90
2018-07-08T23:41:47.234Z,99.90
2018-07-08T23:44:15.107Z,99.90
2018-07-08T23:46:42.870Z,99.90
2018-07-08T23:49:10.707Z,99.90
2018-07-08T23:51:38.519Z,99.90
2018-07-08T23:54:06.308Z,99.90
2018-07-08T23:57:08.414Z,99.90
2018-07-08T23:59:52.805Z,99.90
